LAN1024 MUHG-MUHA
Flight info
| Callsign | LAN1024 |
|---|---|
| Flight time | N/A |
| Altitude | 36000 |
| Route | PIKTI2 ANETU J2 XOPLI DCT DUTAN DUTAN1A |
| Aircraft | B788/H-SDE1E2E3FGHIJ2J3J4J5M1RWXY/LB1D1 |
Departure
| Time | N/A |
|---|---|
| Airport | Frank Pais International Airport (MUHG) |
Arrival
| Time | 2026-05-05 20:23 |
|---|---|
| Airport | José Martí International Airport (MUHA) |
| Time | Latitude | Longitude | Altitude | Speed | Heading |
|---|---|---|---|---|---|
| 2026-05-05 19:28 | 21.20085 | -77.06016 | 20086 ft | 442 kts | 302° |
| 2026-05-05 19:28 | 21.21730 | -77.08796 | 20482 ft | 443 kts | 302° |
| 2026-05-05 19:29 | 21.23362 | -77.11557 | 20861 ft | 445 kts | 302° |
| 2026-05-05 19:29 | 21.24924 | -77.14423 | 21207 ft | 446 kts | 295° |
| 2026-05-05 19:29 | 21.26052 | -77.17530 | 21579 ft | 448 kts | 290° |
| 2026-05-05 19:29 | 21.27096 | -77.20685 | 21909 ft | 449 kts | 290° |
| 2026-05-05 19:30 | 21.28128 | -77.23859 | 22246 ft | 451 kts | 289° |
| 2026-05-05 19:30 | 21.29164 | -77.27043 | 22626 ft | 451 kts | 290° |
| 2026-05-05 19:30 | 21.30203 | -77.30204 | 23151 ft | 448 kts | 290° |
| 2026-05-05 19:30 | 21.31240 | -77.33362 | 23649 ft | 447 kts | 290° |
| 2026-05-05 19:31 | 21.32265 | -77.36503 | 24051 ft | 445 kts | 290° |
| 2026-05-05 19:31 | 21.33284 | -77.39631 | 24448 ft | 444 kts | 290° |
| 2026-05-05 19:31 | 21.34292 | -77.42716 | 24854 ft | 443 kts | 290° |
| 2026-05-05 19:31 | 21.35310 | -77.45834 | 25295 ft | 442 kts | 290° |
| 2026-05-05 19:32 | 21.36322 | -77.48939 | 25780 ft | 440 kts | 290° |
| 2026-05-05 19:32 | 21.37331 | -77.52037 | 26245 ft | 439 kts | 291° |
| 2026-05-05 19:32 | 21.38214 | -77.54751 | 26684 ft | 438 kts | 291° |
| 2026-05-05 19:32 | 21.39216 | -77.57830 | 27221 ft | 436 kts | 291° |
| 2026-05-05 19:33 | 21.40214 | -77.60900 | 27800 ft | 435 kts | 291° |
| 2026-05-05 19:33 | 21.41208 | -77.63960 | 28424 ft | 432 kts | 291° |
| 2026-05-05 19:33 | 21.42195 | -77.66999 | 29055 ft | 431 kts | 291° |
| 2026-05-05 19:33 | 21.43179 | -77.70034 | 29719 ft | 429 kts | 291° |
| 2026-05-05 19:34 | 21.44158 | -77.73052 | 30362 ft | 427 kts | 291° |
| 2026-05-05 19:34 | 21.45129 | -77.76051 | 30983 ft | 424 kts | 292° |
| 2026-05-05 19:34 | 21.46096 | -77.79037 | 31630 ft | 422 kts | 292° |
| 2026-05-05 19:35 | 21.48032 | -77.85012 | 32020 ft | 432 kts | 292° |
| 2026-05-05 19:35 | 21.49986 | -77.91077 | 32008 ft | 427 kts | 292° |
| 2026-05-05 19:36 | 21.51931 | -77.97099 | 32018 ft | 427 kts | 292° |
| 2026-05-05 19:36 | 21.53871 | -78.03126 | 32018 ft | 427 kts | 292° |
| 2026-05-05 19:37 | 21.55811 | -78.09157 | 32018 ft | 427 kts | 292° |
| 2026-05-05 19:37 | 21.57749 | -78.15188 | 32016 ft | 427 kts | 292° |
| 2026-05-05 19:38 | 21.59684 | -78.21223 | 32013 ft | 427 kts | 292° |
| 2026-05-05 19:38 | 21.61606 | -78.27224 | 32008 ft | 427 kts | 292° |
| 2026-05-05 19:39 | 21.63538 | -78.33264 | 32005 ft | 427 kts | 292° |
| 2026-05-05 19:39 | 21.65470 | -78.39311 | 32004 ft | 427 kts | 292° |
| 2026-05-05 19:40 | 21.67402 | -78.45368 | 32005 ft | 428 kts | 292° |
| 2026-05-05 19:40 | 21.69328 | -78.51417 | 32006 ft | 428 kts | 292° |
| 2026-05-05 19:41 | 21.71254 | -78.57471 | 32021 ft | 428 kts | 292° |
| 2026-05-05 19:41 | 21.73180 | -78.63535 | 32019 ft | 428 kts | 292° |
| 2026-05-05 19:42 | 21.75097 | -78.69579 | 32017 ft | 429 kts | 292° |
| 2026-05-05 19:42 | 21.77013 | -78.75629 | 32015 ft | 428 kts | 292° |
| 2026-05-05 19:43 | 21.78933 | -78.81699 | 32021 ft | 427 kts | 292° |
| 2026-05-05 19:43 | 21.80848 | -78.87762 | 32014 ft | 428 kts | 292° |
| 2026-05-05 19:44 | 21.82751 | -78.93797 | 32018 ft | 428 kts | 292° |
| 2026-05-05 19:44 | 21.84661 | -78.99862 | 32016 ft | 428 kts | 292° |
| 2026-05-05 19:45 | 21.86568 | -79.05926 | 32018 ft | 428 kts | 292° |
| 2026-05-05 19:45 | 21.88484 | -79.11995 | 32016 ft | 427 kts | 294° |
| 2026-05-05 19:46 | 21.90548 | -79.17997 | 32024 ft | 428 kts | 293° |
| 2026-05-05 19:46 | 21.92600 | -79.24005 | 32024 ft | 427 kts | 293° |
| 2026-05-05 19:47 | 21.94661 | -79.30012 | 32025 ft | 427 kts | 293° |
| 2026-05-05 19:47 | 21.96710 | -79.36018 | 32021 ft | 427 kts | 293° |
| 2026-05-05 19:48 | 21.98752 | -79.41995 | 32020 ft | 427 kts | 293° |
| 2026-05-05 19:48 | 22.00801 | -79.48009 | 32018 ft | 427 kts | 293° |
| 2026-05-05 19:49 | 22.02848 | -79.54021 | 32018 ft | 427 kts | 293° |
| 2026-05-05 19:49 | 22.04893 | -79.60038 | 32022 ft | 427 kts | 293° |
| 2026-05-05 19:50 | 22.06937 | -79.66059 | 32021 ft | 427 kts | 293° |
| 2026-05-05 19:50 | 22.08964 | -79.72041 | 32017 ft | 427 kts | 293° |
| 2026-05-05 19:51 | 22.11000 | -79.78055 | 32017 ft | 426 kts | 293° |
| 2026-05-05 19:51 | 22.12688 | -79.83049 | 32011 ft | 426 kts | 293° |
| 2026-05-05 19:52 | 22.14719 | -79.89063 | 32015 ft | 426 kts | 293° |
| 2026-05-05 19:52 | 22.16744 | -79.95071 | 32012 ft | 427 kts | 292° |
| 2026-05-05 19:53 | 22.18774 | -80.01098 | 32013 ft | 427 kts | 292° |
| 2026-05-05 19:53 | 22.20802 | -80.07133 | 32009 ft | 427 kts | 292° |
| 2026-05-05 19:54 | 22.22826 | -80.13160 | 32012 ft | 427 kts | 292° |
| 2026-05-05 19:54 | 22.24852 | -80.19203 | 32014 ft | 428 kts | 292° |
| 2026-05-05 19:55 | 22.26864 | -80.25212 | 32009 ft | 428 kts | 292° |
| 2026-05-05 19:55 | 22.28888 | -80.31265 | 32010 ft | 428 kts | 292° |
| 2026-05-05 19:56 | 22.30910 | -80.37322 | 32009 ft | 428 kts | 292° |
| 2026-05-05 19:56 | 22.32929 | -80.43377 | 32010 ft | 428 kts | 292° |
| 2026-05-05 19:57 | 22.34926 | -80.49375 | 32002 ft | 427 kts | 292° |
| 2026-05-05 19:57 | 22.36936 | -80.55418 | 32004 ft | 427 kts | 292° |
| 2026-05-05 19:58 | 22.38942 | -80.61461 | 32002 ft | 426 kts | 292° |
| 2026-05-05 19:58 | 22.40930 | -80.67456 | 32001 ft | 427 kts | 292° |
| 2026-05-05 19:59 | 22.42930 | -80.73496 | 32001 ft | 427 kts | 292° |
| 2026-05-05 19:59 | 22.44931 | -80.79549 | 31997 ft | 427 kts | 292° |
| 2026-05-05 20:00 | 22.46933 | -80.85612 | 32000 ft | 427 kts | 292° |
| 2026-05-05 20:00 | 22.48917 | -80.91629 | 32000 ft | 427 kts | 292° |
| 2026-05-05 20:01 | 22.50909 | -80.97680 | 31999 ft | 427 kts | 292° |
| 2026-05-05 20:01 | 22.52897 | -81.03727 | 32000 ft | 428 kts | 292° |
| 2026-05-05 20:02 | 22.54888 | -81.09793 | 31999 ft | 428 kts | 292° |
| 2026-05-05 20:02 | 22.56872 | -81.15845 | 31997 ft | 427 kts | 292° |
| 2026-05-05 20:03 | 22.58833 | -81.21837 | 31353 ft | 419 kts | 292° |
| 2026-05-05 20:03 | 22.59813 | -81.24829 | 30553 ft | 424 kts | 291° |
| 2026-05-05 20:03 | 22.60804 | -81.27858 | 29803 ft | 426 kts | 291° |
| 2026-05-05 20:03 | 22.61785 | -81.30870 | 29153 ft | 423 kts | 291° |
| 2026-05-05 20:04 | 22.62763 | -81.33871 | 28486 ft | 422 kts | 291° |
| 2026-05-05 20:04 | 22.63740 | -81.36863 | 27812 ft | 420 kts | 291° |
| 2026-05-05 20:04 | 22.64572 | -81.39897 | 27124 ft | 422 kts | 283° |
| 2026-05-05 20:04 | 22.64916 | -81.43065 | 26400 ft | 426 kts | 274° |
| 2026-05-05 20:05 | 22.65020 | -81.46281 | 25627 ft | 429 kts | 274° |
| 2026-05-05 20:05 | 22.65123 | -81.49510 | 24849 ft | 430 kts | 274° |
| 2026-05-05 20:05 | 22.65216 | -81.52713 | 24033 ft | 432 kts | 274° |
| 2026-05-05 20:05 | 22.65310 | -81.55971 | 23141 ft | 431 kts | 274° |
| 2026-05-05 20:06 | 22.65407 | -81.59196 | 22311 ft | 427 kts | 274° |
| 2026-05-05 20:06 | 22.65503 | -81.62399 | 21497 ft | 423 kts | 274° |
| 2026-05-05 20:06 | 22.65596 | -81.65572 | 20684 ft | 420 kts | 274° |
| 2026-05-05 20:06 | 22.65688 | -81.68719 | 19882 ft | 417 kts | 274° |
| 2026-05-05 20:07 | 22.65778 | -81.71844 | 19098 ft | 414 kts | 274° |
| 2026-05-05 20:07 | 22.65868 | -81.74961 | 18302 ft | 412 kts | 274° |
| 2026-05-05 20:07 | 22.65958 | -81.78052 | 17458 ft | 408 kts | 274° |
| 2026-05-05 20:07 | 22.66045 | -81.81069 | 16682 ft | 404 kts | 273° |
| 2026-05-05 20:08 | 22.66130 | -81.84092 | 15916 ft | 399 kts | 273° |
| 2026-05-05 20:08 | 22.66215 | -81.87122 | 15152 ft | 395 kts | 272° |
| 2026-05-05 20:08 | 22.66296 | -81.90034 | 14421 ft | 390 kts | 272° |
| 2026-05-05 20:08 | 22.66378 | -81.92960 | 13662 ft | 387 kts | 272° |
| 2026-05-05 20:09 | 22.66456 | -81.95852 | 12916 ft | 381 kts | 272° |
| 2026-05-05 20:09 | 22.66532 | -81.98690 | 12197 ft | 375 kts | 271° |
| 2026-05-05 20:09 | 22.66609 | -82.01493 | 11495 ft | 369 kts | 271° |
| 2026-05-05 20:09 | 22.66683 | -82.04239 | 11023 ft | 359 kts | 271° |
| 2026-05-05 20:10 | 22.66753 | -82.06874 | 10854 ft | 340 kts | 271° |
| 2026-05-05 20:10 | 22.66821 | -82.09364 | 10732 ft | 322 kts | 271° |
| 2026-05-05 20:10 | 22.66881 | -82.11641 | 10599 ft | 306 kts | 271° |
| 2026-05-05 20:10 | 22.66940 | -82.13892 | 10475 ft | 291 kts | 271° |
| 2026-05-05 20:11 | 22.66996 | -82.16027 | 10316 ft | 278 kts | 271° |
| 2026-05-05 20:11 | 22.67049 | -82.18057 | 10065 ft | 265 kts | 271° |
| 2026-05-05 20:11 | 22.67100 | -82.20014 | 9777 ft | 260 kts | 271° |
| 2026-05-05 20:11 | 22.67157 | -82.21935 | 9484 ft | 248 kts | 274° |
| 2026-05-05 20:12 | 22.67628 | -82.23697 | 9195 ft | 246 kts | 294° |
| 2026-05-05 20:12 | 22.68355 | -82.25387 | 8936 ft | 249 kts | 294° |
| 2026-05-05 20:12 | 22.69085 | -82.27091 | 8681 ft | 246 kts | 294° |
| 2026-05-05 20:12 | 22.69799 | -82.28760 | 8410 ft | 244 kts | 294° |
| 2026-05-05 20:13 | 22.70497 | -82.30392 | 8150 ft | 234 kts | 294° |
| 2026-05-05 20:13 | 22.71168 | -82.31962 | 7888 ft | 227 kts | 294° |
| 2026-05-05 20:13 | 22.71812 | -82.33468 | 7654 ft | 220 kts | 294° |
| 2026-05-05 20:13 | 22.72453 | -82.34970 | 7408 ft | 214 kts | 294° |
| 2026-05-05 20:14 | 22.73071 | -82.36419 | 7189 ft | 216 kts | 294° |
| 2026-05-05 20:14 | 22.73701 | -82.37895 | 6958 ft | 215 kts | 294° |
| 2026-05-05 20:14 | 22.74322 | -82.39349 | 6731 ft | 209 kts | 294° |
| 2026-05-05 20:14 | 22.74923 | -82.40756 | 6497 ft | 202 kts | 294° |
| 2026-05-05 20:15 | 22.75503 | -82.42119 | 6255 ft | 197 kts | 294° |
| 2026-05-05 20:15 | 22.76071 | -82.43451 | 6056 ft | 192 kts | 294° |
| 2026-05-05 20:15 | 22.76627 | -82.44755 | 5838 ft | 191 kts | 295° |
| 2026-05-05 20:15 | 22.77189 | -82.46073 | 5621 ft | 194 kts | 295° |
| 2026-05-05 20:16 | 22.77751 | -82.47392 | 5407 ft | 190 kts | 295° |
| 2026-05-05 20:16 | 22.78308 | -82.48699 | 5197 ft | 190 kts | 295° |
| 2026-05-05 20:16 | 22.78850 | -82.49972 | 4989 ft | 189 kts | 295° |
| 2026-05-05 20:16 | 22.79421 | -82.51264 | 4785 ft | 192 kts | 300° |
| 2026-05-05 20:17 | 22.80400 | -82.52202 | 4715 ft | 189 kts | 327° |
| 2026-05-05 20:17 | 22.81491 | -82.53022 | 4723 ft | 193 kts | 322° |
| 2026-05-05 20:17 | 22.82580 | -82.53899 | 4572 ft | 197 kts | 322° |
| 2026-05-05 20:17 | 22.83620 | -82.54714 | 4330 ft | 194 kts | 323° |
| 2026-05-05 20:18 | 22.84712 | -82.55558 | 4091 ft | 193 kts | 323° |
| 2026-05-05 20:18 | 22.85800 | -82.56399 | 3826 ft | 191 kts | 323° |
| 2026-05-05 20:18 | 22.87007 | -82.56963 | 3508 ft | 194 kts | 355° |
| 2026-05-05 20:18 | 22.88301 | -82.56623 | 3235 ft | 198 kts | 28° |
| 2026-05-05 20:19 | 22.89205 | -82.55517 | 3011 ft | 196 kts | 52° |
| 2026-05-05 20:19 | 22.90028 | -82.54328 | 2759 ft | 198 kts | 52° |
| 2026-05-05 20:19 | 22.90808 | -82.53163 | 2522 ft | 181 kts | 52° |
| 2026-05-05 20:19 | 22.91498 | -82.52119 | 2296 ft | 162 kts | 52° |
| 2026-05-05 20:20 | 22.92139 | -82.51144 | 2078 ft | 158 kts | 53° |
| 2026-05-05 20:20 | 22.92769 | -82.50189 | 1874 ft | 155 kts | 52° |
| 2026-05-05 20:20 | 22.93397 | -82.49239 | 1683 ft | 154 kts | 52° |
| 2026-05-05 20:20 | 22.94023 | -82.48295 | 1484 ft | 155 kts | 52° |
| 2026-05-05 20:21 | 22.94646 | -82.47346 | 1290 ft | 153 kts | 52° |
| 2026-05-05 20:21 | 22.95264 | -82.46415 | 1089 ft | 150 kts | 52° |
| 2026-05-05 20:21 | 22.95861 | -82.45496 | 955 ft | 146 kts | 52° |
| 2026-05-05 20:21 | 22.96456 | -82.44577 | 750 ft | 148 kts | 51° |
| 2026-05-05 20:22 | 22.97076 | -82.43691 | 532 ft | 147 kts | 54° |
| 2026-05-05 20:22 | 22.97670 | -82.42777 | 326 ft | 147 kts | 51° |
| 2026-05-05 20:22 | 22.98268 | -82.41881 | 228 ft | 140 kts | 52° |
| 2026-05-05 20:22 | 22.98739 | -82.41172 | 227 ft | 88 kts | 54° |
| 2026-05-05 20:23 | 22.98998 | -82.40781 | 225 ft | 53 kts | 54° |
| 2026-05-05 20:23 | 22.99192 | -82.40487 | 225 ft | 29 kts | 54° |
| 2026-05-05 20:23 | 22.99260 | -82.40422 | 225 ft | 11 kts | 16° |
| 2026-05-05 20:23 | 22.99352 | -82.40407 | 225 ft | 20 kts | 8° |
| 2026-05-05 20:24 | 22.99375 | -82.40403 | 224 ft | 0 kts | 8° |
| 2026-05-05 20:25 | 22.99389 | -82.40401 | 224 ft | 5 kts | 9° |
| 2026-05-05 20:25 | 22.99425 | -82.40394 | 223 ft | 6 kts | 9° |
| 2026-05-05 20:25 | 22.99467 | -82.40398 | 228 ft | 7 kts | 343° |
| 2026-05-05 20:25 | 22.99521 | -82.40430 | 227 ft | 10 kts | 326° |
| 2026-05-05 20:26 | 22.99577 | -82.40476 | 226 ft | 10 kts | 316° |
| 2026-05-05 20:26 | 22.99577 | -82.40532 | 226 ft | 8 kts | 244° |
| 2026-05-05 20:26 | 22.99544 | -82.40584 | 229 ft | 9 kts | 234° |
| 2026-05-05 20:26 | 22.99503 | -82.40647 | 225 ft | 11 kts | 234° |
| 2026-05-05 20:27 | 22.99489 | -82.40685 | 224 ft | 1 kts | 276° |
| 2026-05-05 20:27 | 22.99506 | -82.40706 | 230 ft | 7 kts | 317° |
| 2026-05-05 20:27 | 22.99547 | -82.40733 | 225 ft | 6 kts | 349° |
| 2026-05-05 20:27 | 22.99582 | -82.40718 | 225 ft | 9 kts | 26° |
| 2026-05-05 20:28 | 22.99601 | -82.40707 | 228 ft | 1 kts | 28° |
| 2026-05-05 20:28 | 22.99604 | -82.40706 | 230 ft | 0 kts | 28° |
| 2026-05-05 20:28 | 22.92970 | -82.49883 | 1820 ft | 155 kts | 52° |
| 2026-05-05 20:28 | 22.93598 | -82.48935 | 1615 ft | 154 kts | 52° |
| 2026-05-05 20:29 | 22.94224 | -82.47991 | 1421 ft | 155 kts | 52° |
| 2026-05-05 20:29 | 22.94845 | -82.47046 | 1238 ft | 153 kts | 52° |
| 2026-05-05 20:29 | 22.95457 | -82.46122 | 1061 ft | 149 kts | 52° |
| 2026-05-05 20:29 | 22.96039 | -82.45216 | 890 ft | 149 kts | 53° |
| 2026-05-05 20:30 | 22.96646 | -82.44304 | 693 ft | 147 kts | 50° |
| 2026-05-05 20:30 | 22.97257 | -82.43416 | 465 ft | 148 kts | 54° |
| 2026-05-05 20:30 | 22.97854 | -82.42504 | 296 ft | 146 kts | 51° |
| 2026-05-05 20:30 | 22.98433 | -82.41636 | 228 ft | 126 kts | 55° |
| 2026-05-05 20:31 | 22.98836 | -82.41025 | 226 ft | 72 kts | 54° |
| 2026-05-05 20:31 | 22.99065 | -82.40679 | 224 ft | 51 kts | 54° |
| 2026-05-05 20:31 | 22.99214 | -82.40454 | 223 ft | 12 kts | 53° |
| 2026-05-05 20:31 | 22.99283 | -82.40418 | 224 ft | 11 kts | 8° |
| 2026-05-05 20:32 | 22.99375 | -82.40403 | 224 ft | 0 kts | 8° |
| 2026-05-05 20:33 | 22.99376 | -82.40403 | 224 ft | 0 kts | 8° |
| 2026-05-05 20:33 | 22.99400 | -82.40399 | 225 ft | 5 kts | 9° |
| 2026-05-05 20:33 | 22.99438 | -82.40393 | 225 ft | 6 kts | 5° |
| 2026-05-05 20:33 | 22.99482 | -82.40405 | 227 ft | 8 kts | 336° |
| 2026-05-05 20:34 | 22.99537 | -82.40443 | 228 ft | 8 kts | 324° |
| 2026-05-05 20:34 | 22.99546 | -82.40450 | 229 ft | 8 kts | 323° |